This is the latest recevied weather packets stored in our database for station/object KE4LOJ. If no packets are shown the sender has not sent any weather packets the latest 10 day(s).
| Time | Temp. | Humidity | Pressure | Rain* | Wind** | Luminosity | Snow |
|---|---|---|---|---|---|---|---|
| 1777747574 | 23.33° C | 95% | 1011.1 hPa | 0 mm | - | 91 W/m² | - |
| 1777747269 | 23.33° C | 95% | 1011.3 hPa | 0 mm | - | 81 W/m² | - |
| 1777746966 | 23.33° C | 96% | 1011.1 hPa | 0 mm | - | 127 W/m² | - |
| 1777746662 | 23.33° C | 96% | 1011 hPa | 0 mm | - | 211 W/m² | - |
| 1777746357 | 22.78° C | 96% | 1011.1 hPa | 0 mm | - | 208 W/m² | - |
| 1777746053 | 22.22° C | 96% | 1011.2 hPa | 0 mm | - | 179 W/m² | - |
| 1777745752 | 21.67° C | 95% | 1011.1 hPa | 0 mm | - | 176 W/m² | - |
| 1777745450 | 21.11° C | 94% | 1010.7 hPa | 0 mm | - | 228 W/m² | - |
| 1777745147 | 20.56° C | 93% | 1010.4 hPa | 18.03 mm | - | 211 W/m² | - |
| 1777744844 | 20.56° C | 92% | 1011.1 hPa | 44.45 mm | - | 87 W/m² | - |
| 1777744543 | 25.56° C | 87% | 1012.1 hPa | 21.08 mm | - | 14 W/m² | - |
| 1777744239 | 27.78° C | 73% | 1010.7 hPa | 0 mm | - | 39 W/m² | - |
| 1777743937 | 27.22° C | 75% | 1010.7 hPa | 0 mm | - | 55 W/m² | - |
| 1777743633 | 27.22° C | 80% | 1010.8 hPa | 0 mm | - | 113 W/m² | - |
| 1777743331 | 26.67° C | 81% | 1010.7 hPa | 0 mm | - | 202 W/m² | - |
| 1777743029 | 26.67° C | 81% | 1010.8 hPa | 1.78 mm | - | 249 W/m² | - |
| 1777742726 | 26.67° C | 80% | 1010.7 hPa | 1.78 mm | - | 284 W/m² | - |
| 1777742422 | 28.33° C | 74% | 1010.8 hPa | 0 mm | - | 159 W/m² | - |
| 1777742117 | 29.44° C | 64% | 1010.7 hPa | 0 mm | - | 141 W/m² | - |
| 1777741815 | 29.44° C | 64% | 1010.9 hPa | 0 mm | - | 104 W/m² | - |
| 1777741511 | 30° C | 63% | 1011.3 hPa | 0 mm | - | 123 W/m² | - |
| 1777741209 | 30° C | 64% | 1011.1 hPa | 0 mm | - | 291 W/m² | - |
| 1777740905 | 30° C | 64% | 1011.1 hPa | 0 mm | - | 333 W/m² | - |
| 1777740602 | 29.44° C | 65% | 1011.2 hPa | 0 mm | - | 376 W/m² | - |
| 1777740298 | 29.44° C | 65% | 1011.1 hPa | 0 mm | - | 316 W/m² | - |
* Rain latest hour (hover to see other rain measurements)
** Current wind speed in m/s (hover to see current wind gust speed)